Stuttgart Airport

EDDS · Baden-Württemberg, Duitsland

METAR historie EDDS · Stuttgart Airport

Hieronder zie je METAR's van de afgelopen dagen. Kies een jaar om door oudere METAR's te bladeren, vanaf het jaar 2007.

15 april 2024

Tijd Code Weer Temp. Zicht Plafond Wind METAR/SPECI
23:20
V
4 °C 10 km+ 3.300 ft 280° 280° 14 kt METAR EDDS 152120Z AUTO 28014KT 9999 -RA FEW019 BKN033 BKN043 04/02 Q1011
22:50
V
6 °C 10 km+ - 290° 290° 20 kt METAR EDDS 152050Z AUTO 29020KT 9999 -RA FEW035 06/02 Q1010
22:20
V
7 °C 10 km+ - 290° 290° 23 kt METAR EDDS 152020Z AUTO 29023KT 9999 SCT041 07/01 Q1009
21:50
V
7 °C 10 km+ - 300° 300° 30 - 43 kt METAR EDDS 151950Z AUTO 30030G43KT 9999 FEW027 SCT044 07/02 Q1009 TEMPO 4000 SHRA
21:20
V
10 °C 10 km+ - 300° 300° 29 - 42 kt METAR EDDS 151920Z AUTO 30029G42KT CAVOK 10/03 Q1007
20:50
V
14 °C 10 km+ - 260° 260° 18 kt METAR EDDS 151850Z AUTO 26018KT CAVOK 14/02 Q1006 TEMPO 26020G40KT SHRA
20:20
V
14 °C 10 km+ - 260° 260° 20 kt METAR EDDS 151820Z AUTO 26020KT CAVOK 14/02 Q1005 TEMPO SHRA
19:50
V
14 °C 10 km+ - 270° 270° 24 kt METAR EDDS 151750Z AUTO 27024KT CAVOK 14/02 Q1005 TEMPO SHRA
19:20
V
15 °C 10 km+ - 270° 270° 18 - 28 kt METAR EDDS 151720Z AUTO 27018G28KT CAVOK 15/03 Q1005 TEMPO SHRA
18:50
V
16 °C 10 km+ - 260° 260° 19 kt METAR EDDS 151650Z AUTO 26019KT 230V290 CAVOK 16/03 Q1005 TEMPO SHRA
18:20
V
16 °C 10 km+ - 260° 260° 21 - 32 kt METAR EDDS 151620Z AUTO 26021G32KT CAVOK 16/03 Q1005 TEMPO SHRA
17:50
V
17 °C 10 km+ - 260° 260° 17 - 27 kt METAR EDDS 151550Z AUTO 26017G27KT CAVOK 17/04 Q1005 NOSIG
17:20
V
17 °C 10 km+ - 250° 250° 22 - 37 kt METAR EDDS 151520Z AUTO 25022G37KT CAVOK 17/05 Q1005 NOSIG
16:50
V
17 °C 10 km+ - 240° 240° 17 - 34 kt METAR EDDS 151450Z AUTO 24017G34KT 160V300 9999 FEW039 SCT047 17/07 Q1006 NOSIG
16:20
V
16 °C 10 km+ - 240° 240° 13 kt METAR EDDS 151420Z AUTO 24013KT 180V270 9999 FEW038 SCT049 16/09 Q1006 NOSIG
15:50
V
16 °C 10 km+ 4.600 ft 260° 260° 14 kt METAR EDDS 151350Z AUTO 26014KT 230V300 9999 SCT031 SCT039 BKN046 16/09 Q1007 NOSIG
15:20
V
16 °C 10 km+ - 240° 240° 9 kt METAR EDDS 151320Z AUTO 24009KT 200V270 9999 VCSH FEW048 FEW///CB 16/11 Q1007 RESHRA TEMPO 24015G30KT
14:50
V
15 °C 10 km+ - 260° 260° 15 - 27 kt METAR EDDS 151250Z AUTO 26015G27KT 230V290 9999 -SHRA FEW032 SCT048 FEW///CB 15/10 Q1008 NOSIG
14:20
V
15 °C 10 km+ - 250° 250° 9 kt METAR EDDS 151220Z AUTO 25009KT 9999 FEW039 15/10 Q1009 TEMPO 25015G25KT SHRA
13:50
V
15 °C 10 km+ 4.700 ft 270° 270° 7 kt METAR EDDS 151150Z AUTO 27007KT 190V310 9999 -SHRA FEW033 SCT041 BKN047 FEW///TCU 15/10 Q1010 TEMPO 24015G25KT SHRA
13:20
V
15 °C 10 km+ 4.400 ft 270° 270° 6 kt METAR EDDS 151120Z AUTO 27006KT 230V290 9999 VCSH SCT034 BKN044 FEW///TCU 15/09 Q1010 NOSIG
12:50
V
15 °C 10 km+ 3.600 ft Var Var 2 kt METAR EDDS 151050Z AUTO VRB02KT 9999 BKN036 BKN046 15/09 Q1011 NOSIG
12:20
V
14 °C 10 km+ - 140° 140° 4 kt METAR EDDS 151020Z AUTO 14004KT 100V210 9999 SCT027 SCT044 14/09 Q1011 NOSIG
11:50
M
14 °C 10 km+ 2.200 ft 270° 270° 5 kt METAR EDDS 150950Z AUTO 27005KT 240V310 9999 BKN022 BKN029 BKN036 14/09 Q1012 NOSIG
11:20
V
14 °C 10 km+ - Var Var 3 kt METAR EDDS 150920Z AUTO VRB03KT 9999 FEW023 SCT030 14/08 Q1012 NOSIG
10:50
V
13 °C 10 km+ - 300° 300° 4 kt METAR EDDS 150850Z AUTO 30004KT 250V030 9999 -RA FEW048 13/09 Q1012
10:20
V
13 °C 10 km+ - 280° 280° 8 kt METAR EDDS 150820Z AUTO 28008KT 260V320 9999 -RA FEW025 13/08 Q1013 NOSIG
09:50
V
13 °C 10 km+ - 290° 290° 10 kt METAR EDDS 150750Z AUTO 29010KT 9999 SCT041 13/08 Q1013 NOSIG
09:20
V
13 °C 10 km+ 4.200 ft 280° 280° 9 kt METAR EDDS 150720Z AUTO 28009KT 9999 -SHRA BKN042 FEW///TCU 13/08 Q1013 NOSIG
08:50
V
13 °C 10 km+ 4.200 ft 280° 280° 9 kt METAR EDDS 150650Z AUTO 28009KT 250V310 9999 -RA BKN042 13/08 Q1013 NOSIG
08:20
V
14 °C 10 km+ - 290° 290° 9 kt METAR EDDS 150620Z AUTO 29009KT 9999 VCSH FEW036 FEW///TCU 14/08 Q1013 RESHRA NOSIG
07:50
V
13 °C 10 km+ - 300° 300° 7 kt METAR EDDS 150550Z AUTO 30007KT 9999 SHRA SCT042 FEW///TCU 13/08 Q1013 TEMPO NSW
07:20
V
13 °C 10 km+ - 260° 260° 5 kt METAR EDDS 150520Z AUTO 26005KT CAVOK 13/09 Q1013 NOSIG
06:50
V
13 °C 10 km+ - 250° 250° 5 kt METAR EDDS 150450Z AUTO 25005KT CAVOK 13/09 Q1013 NOSIG
06:20
V
14 °C 10 km+ - 220° 220° 3 kt METAR EDDS 150420Z AUTO 22003KT 180V270 9999 -RA FEW046 14/10 Q1013 NOSIG
05:50
V
14 °C 10 km+ - Var Var 2 kt METAR EDDS 150350Z AUTO VRB02KT 9999 FEW042 14/10 Q1013
05:20
V
15 °C 10 km+ - 190° 190° 3 kt METAR EDDS 150320Z AUTO 19003KT 120V260 9999 VCSH FEW///CB 15/10 Q1013
04:50
V
15 °C 10 km+ - 280° 280° 8 kt METAR EDDS 150250Z AUTO 28008KT 9999 FEW048 15/09 Q1013
04:20
V
15 °C 10 km+ - 280° 280° 5 kt METAR EDDS 150220Z AUTO 28005KT 210V320 CAVOK 15/10 Q1014
03:50
V
15 °C 10 km+ 4.600 ft 300° 300° 7 kt METAR EDDS 150150Z AUTO 30007KT 9999 BKN046 15/10 Q1014
03:20
V
16 °C 10 km+ - 290° 290° 9 kt METAR EDDS 150120Z AUTO 29009KT 9999 SCT042 16/10 Q1014
02:50
V
16 °C 10 km+ 4.800 ft 300° 300° 10 kt METAR EDDS 150050Z AUTO 30010KT 9999 BKN048 16/11 Q1014
02:20
V
14 °C 10 km+ - 260° 260° 4 kt METAR EDDS 150020Z AUTO 26004KT 230V290 CAVOK 14/11 Q1015
01:50
V
15 °C 10 km+ - Var Var 2 kt METAR EDDS 142350Z AUTO VRB02KT 9999 FEW048 15/11 Q1015
01:20
V
14 °C 10 km+ - 290° 290° 3 kt METAR EDDS 142320Z AUTO 29003KT CAVOK 14/11 Q1015
00:50
V
15 °C 10 km+ - Var Var 2 kt METAR EDDS 142250Z AUTO VRB02KT 9999 VCSH FEW///TCU 15/12 Q1015 RESHRA
00:20
V
15 °C 10 km+ - Var Var 2 kt METAR EDDS 142220Z AUTO VRB02KT 9999 SHRA FEW///CB 15/11 Q1015

14 april 2024

Tijd Code Weer Temp. Zicht Plafond Wind METAR/SPECI
23:50
V
16 °C 10 km+ - Var Var 2 kt METAR EDDS 142150Z AUTO VRB02KT 9999 -SHRA FEW///CB 16/11 Q1015
23:20
V
15 °C 10 km+ - 340° 340° 1 kt METAR EDDS 142120Z AUTO 34001KT CAVOK 15/10 Q1016
22:50
V
16 °C 10 km+ - Var Var 2 kt METAR EDDS 142050Z AUTO VRB02KT CAVOK 16/10 Q1016
22:20
V
16 °C 10 km+ - 300° 300° 6 kt METAR EDDS 142020Z AUTO 30006KT CAVOK 16/10 Q1017
21:50
V
17 °C 10 km+ - 320° 320° 2 kt METAR EDDS 141950Z AUTO 32002KT CAVOK 17/11 Q1017 NOSIG
21:20
V
18 °C 10 km+ - Var Var 2 kt METAR EDDS 141920Z AUTO VRB02KT CAVOK 18/11 Q1017 NOSIG
20:50
V
19 °C 10 km+ - 320° 320° 7 kt METAR EDDS 141850Z AUTO 32007KT CAVOK 19/12 Q1017
20:20
V
20 °C 10 km+ - Var Var 2 kt METAR EDDS 141820Z AUTO VRB02KT CAVOK 20/12 Q1017 NOSIG
19:50
V
21 °C 10 km+ - 270° 270° 4 kt METAR EDDS 141750Z AUTO 27004KT 230V300 CAVOK 21/12 Q1018 NOSIG
19:20
V
22 °C 10 km+ - 310° 310° 6 kt METAR EDDS 141720Z AUTO 31006KT CAVOK 22/12 Q1018 NOSIG
18:50
V
22 °C 10 km+ - 310° 310° 6 kt METAR EDDS 141650Z AUTO 31006KT CAVOK 22/12 Q1018 NOSIG
18:20
V
23 °C 10 km+ - 300° 300° 9 kt METAR EDDS 141620Z AUTO 30009KT CAVOK 23/12 Q1018 NOSIG
17:50
V
23 °C 10 km+ - 300° 300° 9 kt METAR EDDS 141550Z AUTO 30009KT 270V330 CAVOK 23/11 Q1018
17:20
V
23 °C 10 km+ - 300° 300° 10 kt METAR EDDS 141520Z AUTO 30010KT CAVOK 23/11 Q1019 NOSIG
16:50
V
23 °C 10 km+ - 040° 040° 4 kt METAR EDDS 141450Z AUTO 04004KT 310V090 CAVOK 23/11 Q1019 NOSIG
16:20
V
23 °C 10 km+ - 040° 040° 7 kt METAR EDDS 141420Z AUTO 04007KT 360V060 CAVOK 23/12 Q1019 NOSIG
15:50
V
23 °C 10 km+ - 030° 030° 10 kt METAR EDDS 141350Z AUTO 03010KT CAVOK 23/12 Q1020 NOSIG
15:20
V
23 °C 10 km+ - 360° 360° 8 kt METAR EDDS 141320Z AUTO 36008KT 320V050 CAVOK 23/12 Q1020 NOSIG
14:50
V
23 °C 10 km+ - 010° 010° 7 kt METAR EDDS 141250Z AUTO 01007KT 320V080 CAVOK 23/12 Q1020 NOSIG
14:20
V
23 °C 10 km+ - 060° 060° 8 kt METAR EDDS 141220Z AUTO 06008KT 020V080 CAVOK 23/13 Q1021 NOSIG
13:50
V
22 °C 10 km+ - 020° 020° 6 kt METAR EDDS 141150Z AUTO 02006KT 320V050 CAVOK 22/12 Q1021 NOSIG
13:20
V
22 °C 10 km+ - 010° 010° 7 kt METAR EDDS 141120Z AUTO 01007KT 340V050 CAVOK 22/12 Q1021 NOSIG
12:50
V
23 °C 10 km+ - 010° 010° 6 kt METAR EDDS 141050Z AUTO 01006KT 310V060 CAVOK 23/12 Q1021 NOSIG
12:20
V
23 °C 10 km+ - 260° 260° 4 kt METAR EDDS 141020Z AUTO 26004KT 180V320 CAVOK 23/10 Q1022 NOSIG
11:50
V
22 °C 10 km+ - Var Var 3 kt METAR EDDS 140950Z AUTO VRB03KT CAVOK 22/11 Q1022 NOSIG
11:20
V
21 °C 10 km+ - 270° 270° 5 kt METAR EDDS 140920Z AUTO 27005KT 210V310 CAVOK 21/09 Q1022 NOSIG
10:50
V
21 °C 10 km+ - Var Var 2 kt METAR EDDS 140850Z AUTO VRB02KT CAVOK 21/10 Q1022 NOSIG
10:20
V
20 °C 10 km+ - Var Var 2 kt METAR EDDS 140820Z AUTO VRB02KT CAVOK 20/09 Q1022 NOSIG
09:50
V
17 °C 10 km+ - Var Var 2 kt METAR EDDS 140750Z AUTO VRB02KT CAVOK 17/11 Q1022
09:20
V
16 °C 10 km+ - Var Var 2 kt METAR EDDS 140720Z AUTO VRB02KT CAVOK 16/11 Q1022 NOSIG
08:50
V
14 °C 10 km+ - Var Var 1 kt METAR EDDS 140650Z AUTO VRB01KT CAVOK 14/10 Q1022 NOSIG
08:20
V
13 °C 10 km+ - Var Var 1 kt METAR EDDS 140620Z AUTO VRB01KT CAVOK 13/09 Q1022 NOSIG
07:50
V
11 °C 10 km+ - Var Var 2 kt METAR EDDS 140550Z AUTO VRB02KT CAVOK 11/08 Q1022 NOSIG
07:20
V
10 °C 10 km+ - Var Var 2 kt METAR EDDS 140520Z AUTO VRB02KT CAVOK 10/08 Q1022 NOSIG
06:50
V
9 °C 10 km+ - Var Var 2 kt METAR EDDS 140450Z AUTO VRB02KT CAVOK 09/07 Q1022 NOSIG
06:20
V
10 °C 10 km+ - Var Var 1 kt METAR EDDS 140420Z AUTO VRB01KT CAVOK 10/07 Q1022 NOSIG
05:50
V
10 °C 10 km+ - 360° 360° 0 kt METAR EDDS 140350Z AUTO 00000KT CAVOK 10/06 Q1022
05:20
V
11 °C 10 km+ - Var Var 1 kt METAR EDDS 140320Z AUTO VRB01KT CAVOK 11/06 Q1022
04:50
V
12 °C 10 km+ - 260° 260° 2 kt METAR EDDS 140250Z AUTO 26002KT CAVOK 12/07 Q1022
04:20
V
12 °C 10 km+ - 360° 360° 0 kt METAR EDDS 140220Z AUTO 00000KT CAVOK 12/07 Q1022
03:50
V
12 °C 10 km+ - Var Var 1 kt METAR EDDS 140150Z AUTO VRB01KT CAVOK 12/07 Q1022
03:20
V
13 °C 10 km+ - Var Var 2 kt METAR EDDS 140120Z AUTO VRB02KT CAVOK 13/08 Q1022
02:50
V
14 °C 10 km+ - Var Var 2 kt METAR EDDS 140050Z AUTO VRB02KT CAVOK 14/08 Q1023
02:20
V
12 °C 10 km+ - Var Var 1 kt METAR EDDS 140020Z AUTO VRB01KT CAVOK 12/08 Q1023
01:50
V
14 °C 10 km+ - Var Var 2 kt METAR EDDS 132350Z AUTO VRB02KT CAVOK 14/08 Q1023
01:20
V
14 °C 10 km+ - 320° 320° 1 kt METAR EDDS 132320Z AUTO 32001KT CAVOK 14/10 Q1023
00:50
V
13 °C 10 km+ - Var Var 2 kt METAR EDDS 132250Z AUTO VRB02KT CAVOK 13/10 Q1023
00:20
V
14 °C 10 km+ - Var Var 2 kt METAR EDDS 132220Z AUTO VRB02KT CAVOK 14/10 Q1023

13 april 2024

Tijd Code Weer Temp. Zicht Plafond Wind METAR/SPECI
23:50
V
15 °C 10 km+ - 360° 360° 0 kt METAR EDDS 132150Z AUTO 00000KT CAVOK 15/10 Q1023
23:20
V
16 °C 10 km+ - 200° 200° 3 kt METAR EDDS 132120Z AUTO 20003KT 160V240 CAVOK 16/10 Q1023
22:50
V
17 °C 10 km+ - Var Var 2 kt METAR EDDS 132050Z AUTO VRB02KT CAVOK 17/11 Q1023
22:20
V
15 °C 10 km+ - 220° 220° 4 kt METAR EDDS 132020Z AUTO 22004KT 130V260 CAVOK 15/11 Q1024
21:50
V
17 °C 10 km+ - 280° 280° 4 kt METAR EDDS 131950Z AUTO 28004KT 240V320 CAVOK 17/11 Q1024 NOSIG
21:20
V
18 °C 10 km+ - Var Var 1 kt METAR EDDS 131920Z AUTO VRB01KT CAVOK 18/11 Q1024 NOSIG
20:50
V
18 °C 10 km+ - 310° 310° 2 kt METAR EDDS 131850Z AUTO 31002KT CAVOK 18/11 Q1024 NOSIG
20:20
V
20 °C 10 km+ - 300° 300° 3 kt METAR EDDS 131820Z AUTO 30003KT CAVOK 20/11 Q1023 NOSIG
19:50
V
21 °C 10 km+ - 330° 330° 4 kt METAR EDDS 131750Z AUTO 33004KT CAVOK 21/11 Q1024 NOSIG
19:20
V
22 °C 10 km+ - 350° 350° 7 kt METAR EDDS 131720Z AUTO 35007KT 310V020 CAVOK 22/11 Q1024 NOSIG
18:50
V
23 °C 10 km+ - 350° 350° 8 kt METAR EDDS 131650Z AUTO 35008KT 330V030 CAVOK 23/11 Q1024 NOSIG
18:20
V
25 °C 10 km+ - Var Var 5 kt METAR EDDS 131620Z AUTO VRB05KT CAVOK 25/10 Q1024 NOSIG
17:50
V
26 °C 10 km+ - 240° 240° 5 kt METAR EDDS 131550Z AUTO 24005KT 130V270 CAVOK 26/08 Q1024 NOSIG
17:20
V
26 °C 10 km+ - 260° 260° 4 kt METAR EDDS 131520Z AUTO 26004KT 180V300 CAVOK 26/07 Q1024 NOSIG
16:50
V
26 °C 10 km+ - 200° 200° 5 kt METAR EDDS 131450Z AUTO 20005KT 140V290 CAVOK 26/05 Q1024 NOSIG
16:20
V
26 °C 10 km+ - Var Var 3 kt METAR EDDS 131420Z AUTO VRB03KT CAVOK 26/04 Q1025 NOSIG
15:50
V
25 °C 10 km+ - Var Var 2 kt METAR EDDS 131350Z AUTO VRB02KT CAVOK 25/06 Q1025 NOSIG
15:20
V
25 °C 10 km+ - Var Var 4 kt METAR EDDS 131320Z AUTO VRB04KT CAVOK 25/07 Q1026 NOSIG
14:50
V
24 °C 10 km+ - Var Var 3 kt METAR EDDS 131250Z AUTO VRB03KT CAVOK 24/09 Q1026 NOSIG
14:20
V
24 °C 10 km+ - Var Var 2 kt METAR EDDS 131220Z AUTO VRB02KT CAVOK 24/09 Q1027 NOSIG
13:50
V
23 °C 10 km+ - 120° 120° 3 kt METAR EDDS 131150Z AUTO 12003KT 030V200 CAVOK 23/09 Q1027 NOSIG
13:20
V
22 °C 10 km+ - Var Var 2 kt METAR EDDS 131120Z AUTO VRB02KT CAVOK 22/09 Q1027 NOSIG
12:50
V
21 °C 10 km+ - Var Var 3 kt METAR EDDS 131050Z AUTO VRB03KT CAVOK 21/08 Q1028 NOSIG
12:20
V
20 °C 10 km+ - Var Var 3 kt METAR EDDS 131020Z AUTO VRB03KT CAVOK 20/08 Q1028 NOSIG
11:50
V
20 °C 10 km+ - 110° 110° 3 kt METAR EDDS 130950Z AUTO 11003KT 020V150 CAVOK 20/09 Q1028 NOSIG
11:20
V
19 °C 10 km+ - 120° 120° 3 kt METAR EDDS 130920Z AUTO 12003KT 040V170 CAVOK 19/10 Q1029 NOSIG
10:50
V
17 °C 10 km+ - 110° 110° 3 kt METAR EDDS 130850Z AUTO 11003KT 050V170 CAVOK 17/10 Q1029 NOSIG
10:20
V
16 °C 10 km+ - Var Var 2 kt METAR EDDS 130820Z AUTO VRB02KT CAVOK 16/09 Q1029 NOSIG
09:50
V
14 °C 10 km+ - 100° 100° 2 kt METAR EDDS 130750Z AUTO 10002KT CAVOK 14/08 Q1030 NOSIG
09:20
V
13 °C 10 km+ - Var Var 1 kt METAR EDDS 130720Z AUTO VRB01KT CAVOK 13/07 Q1030 NOSIG
08:50
V
10 °C 10 km+ - Var Var 2 kt METAR EDDS 130650Z AUTO VRB02KT CAVOK 10/07 Q1030 NOSIG
08:20
V
9 °C 10 km+ - Var Var 1 kt METAR EDDS 130620Z AUTO VRB01KT CAVOK 09/06 Q1030 NOSIG
07:50
V
7 °C 10 km+ - Var Var 1 kt METAR EDDS 130550Z AUTO VRB01KT CAVOK 07/05 Q1029 NOSIG
Wijziging doorgeven